Omak, Washington
Current Conditions -  °F | °C
As of 10:19 AM on Sunday 25 Jan 2015 (Local Time) from KOMK Reporting Station
Haze Haze  
Wind Chill:   Ceiling: 500
Heat Index:   Visibility: 1mi
Dew Point:   Wind: 0mph
Humidity: 96%   Direction: NA
Pressure: 30.27"   Gusts: NA
Location:  48.41°N, 119.53°W
Report Text: KOMK 251819Z AUTO 00000KT 1SM BR VV005 02/01 A3027 RMK AO2 T00170011
Loading
Personal Weather Stations






























Interactive Weather Map New forecast layout! Learn more

10-Day Weather Forecast

Advertisements
Track Severe Weather on mobile